Terminal Aerodrome Forecast
Issued by NWS Nashville, TN

Home | Current Version | Previous Version | Text Only | Print | Product List | Glossary On
Versions: 1 2 3 4 5 6 7 8 9 10 11 12 13 14 15 16 17
000
FTUS44 KOHX 220525
TAFCSV
TAF
KCSV 220525Z 2206/2306 29005KT P6SM SCT025
     FM220800 36011KT P6SM BKN020
     FM221400 02009G17KT P6SM SCT020
     FM222100 01008KT P6SM SKC
     FM230000 01002KT P6SM SKC=

USA.gov is the U.S. government's official web portal to all federal, state and local government web resources and services.